Time;durP1;ratioP1;P1;durP2;ratioP2;P2;SDS_P1;SDS_P2;PMS_P1;PMS_P2;Temp;Humidity;BMP_temperature;BMP_pressure;BME280_temperature;BME280_humidity;BME280_pressure;Samples;Min_cycle;Max_cycle;Signal;HPM_P1;HPM_P2
2023/05/13 00:01:56;;;;;;;9.98;5.28;;;;;;;14.94;56.97;102198.53;7391662;19;20018;-53
2023/05/13 00:04:23;;;;;;;10.60;5.70;;;;;;;14.89;57.11;102201.53;7392278;19;20013;-53
2023/05/13 00:06:51;;;;;;;9.48;5.53;;;;;;;14.84;57.49;102195.63;7392244;19;20067;-53
2023/05/13 00:09:18;;;;;;;9.05;5.10;;;;;;;14.78;57.77;102190.72;7391988;19;20022;-52
2023/05/13 00:11:45;;;;;;;9.00;5.47;;;;;;;14.77;57.86;102199.69;7391814;19;20022;-52
2023/05/13 00:14:12;;;;;;;8.57;5.95;;;;;;;14.74;57.92;102192.75;7392196;19;20013;-53
2023/05/13 00:16:39;;;;;;;10.80;5.85;;;;;;;14.75;57.89;102191.78;7392032;19;20022;-54
2023/05/13 00:19:06;;;;;;;10.50;5.65;;;;;;;14.75;57.79;102189.13;7390485;19;20018;-54
2023/05/13 00:21:33;;;;;;;9.20;5.55;;;;;;;14.70;58.16;102193.06;7390370;19;20015;-55
2023/05/13 00:24:00;;;;;;;8.82;5.38;;;;;;;14.43;58.90;102195.75;7391636;19;20055;-52
2023/05/13 00:26:27;;;;;;;8.10;5.70;;;;;;;14.53;58.82;102202.19;7390793;19;20043;-52
2023/05/13 00:28:55;;;;;;;10.40;5.90;;;;;;;14.54;58.67;102198.59;7391415;19;20051;-53
2023/05/13 00:31:22;;;;;;;10.30;5.85;;;;;;;14.53;58.66;102202.19;7392254;19;20156;-51
2023/05/13 00:33:49;;;;;;;10.48;5.85;;;;;;;14.58;58.69;102195.59;7390256;19;20018;-52
2023/05/13 00:36:16;;;;;;;12.80;6.38;;;;;;;14.55;58.54;102195.81;7390611;19;20019;-49
2023/05/13 00:38:43;;;;;;;9.75;5.80;;;;;;;14.50;58.82;102195.28;7391222;19;20015;-53
2023/05/13 00:41:11;;;;;;;10.40;6.18;;;;;;;14.49;58.86;102193.53;7390987;19;20090;-50
2023/05/13 00:43:38;;;;;;;10.65;6.30;;;;;;;14.47;59.15;102191.91;7391358;19;20102;-49
2023/05/13 00:46:05;;;;;;;10.27;5.78;;;;;;;14.46;59.37;102184.84;7390783;19;20024;-52
2023/05/13 00:48:33;;;;;;;9.73;6.05;;;;;;;14.37;59.45;102194.34;7388564;19;20026;-53
2023/05/13 00:51:00;;;;;;;10.38;6.50;;;;;;;14.41;59.59;102198.50;7388456;19;20024;-53
2023/05/13 00:53:27;;;;;;;9.55;6.00;;;;;;;14.37;59.85;102194.34;7391138;19;20029;-52
2023/05/13 00:55:54;;;;;;;9.95;6.13;;;;;;;14.35;59.71;102197.13;7390505;19;20019;-52
2023/05/13 00:58:21;;;;;;;9.45;5.60;;;;;;;14.26;59.83;102200.38;7390436;19;20031;-50
2023/05/13 01:01:25;;;;;;;12.50;6.07;;;;;;;14.30;59.86;102188.56;7390425;19;20022;-52
2023/05/13 01:04:23;;;;;;;10.43;6.57;;;;;;;14.25;59.99;102192.50;7391249;19;20018;-52
2023/05/13 01:07:20;;;;;;;11.05;6.53;;;;;;;14.21;60.26;102194.50;7390061;19;20070;-52
2023/05/13 01:10:02;;;;;;;12.52;6.30;;;;;;;14.17;60.36;102198.31;7390351;19;20015;-53
2023/05/13 01:12:37;;;;;;;11.30;6.50;;;;;;;14.05;60.81;102207.97;7389474;19;20048;-56
2023/05/13 01:15:08;;;;;;;10.93;6.35;;;;;;;14.05;60.61;102202.66;7390498;19;20017;-55
2023/05/13 01:17:43;;;;;;;12.15;6.28;;;;;;;14.04;60.75;102200.94;7385131;19;20343;-56
2023/05/13 01:20:11;;;;;;;10.27;6.80;;;;;;;14.01;60.81;102200.28;7389826;19;20030;-55
2023/05/13 01:22:38;;;;;;;10.23;6.63;;;;;;;14.01;61.01;102197.63;7386455;19;20022;-55
2023/05/13 01:25:05;;;;;;;13.20;7.03;;;;;;;14.06;60.80;102201.69;7389571;19;20018;-56
2023/05/13 01:27:32;;;;;;;10.85;6.40;;;;;;;14.03;60.68;102204.53;7388307;19;20022;-56
2023/05/13 01:29:59;;;;;;;10.57;6.68;;;;;;;13.97;61.04;102207.63;7389665;19;20025;-55
2023/05/13 01:32:27;;;;;;;11.00;6.43;;;;;;;13.94;61.22;102205.16;7386234;19;20118;-56
2023/05/13 01:34:55;;;;;;;10.13;6.80;;;;;;;13.94;61.04;102206.97;7389151;19;20014;-56
2023/05/13 01:37:22;;;;;;;14.70;7.20;;;;;;;13.97;60.96;102212.09;7388519;19;20021;-55
2023/05/13 01:39:50;;;;;;;9.57;6.25;;;;;;;13.90;61.30;102207.16;7389116;19;20025;-56
2023/05/13 01:42:17;;;;;;;12.68;7.05;;;;;;;13.90;61.56;102208.97;7386251;19;20011;-56
2023/05/13 01:44:45;;;;;;;11.07;6.90;;;;;;;13.87;61.63;102211.81;7389708;19;20022;-56
2023/05/13 01:47:12;;;;;;;10.90;7.00;;;;;;;13.89;61.51;102216.09;7388112;19;20014;-56
2023/05/13 01:49:39;;;;;;;11.13;6.95;;;;;;;13.95;61.55;102214.84;7389360;19;20353;-56
2023/05/13 01:52:06;;;;;;;11.35;7.45;;;;;;;13.95;61.68;102214.00;7386012;19;20052;-55
2023/05/13 01:54:33;;;;;;;10.68;7.85;;;;;;;13.81;61.86;102209.53;7387857;19;20029;-56
2023/05/13 01:57:00;;;;;;;12.48;7.53;;;;;;;13.82;61.86;102214.78;7389430;19;20516;-56
2023/05/13 01:59:27;;;;;;;13.90;7.85;;;;;;;13.82;61.65;102217.44;7391645;19;20014;-56
2023/05/13 02:01:54;;;;;;;12.60;9.00;;;;;;;13.78;62.07;102215.94;7395536;19;20014;-56
2023/05/13 02:04:22;;;;;;;16.73;9.65;;;;;;;13.80;62.03;102213.16;7396675;19;20018;-55
2023/05/13 02:06:48;;;;;;;14.05;8.93;;;;;;;13.72;62.18;102215.47;7396054;19;20015;-55
2023/05/13 02:09:16;;;;;;;11.30;7.85;;;;;;;13.69;61.99;102211.19;7395300;19;20096;-55
2023/05/13 02:11:44;;;;;;;13.73;7.43;;;;;;;13.69;62.16;102215.66;7393046;19;20033;-55
2023/05/13 02:14:11;;;;;;;12.20;8.02;;;;;;;13.63;62.42;102211.59;7396119;19;20020;-55
2023/05/13 02:16:38;;;;;;;13.88;7.85;;;;;;;13.62;62.42;102212.50;7395237;19;20030;-55
2023/05/13 02:19:05;;;;;;;13.45;8.10;;;;;;;13.71;62.05;102219.09;7395282;19;20043;-56
2023/05/13 02:21:33;;;;;;;14.35;7.50;;;;;;;13.56;62.40;102211.09;7395373;19;20015;-55
2023/05/13 02:24:00;;;;;;;10.27;7.28;;;;;;;13.52;62.52;102214.06;7393183;19;20025;-55
2023/05/13 02:26:27;;;;;;;12.95;6.93;;;;;;;13.50;62.47;102216.81;7396339;19;20093;-55
2023/05/13 02:28:55;;;;;;;13.57;7.05;;;;;;;13.52;62.62;102216.72;7395963;19;20023;-55
2023/05/13 02:31:22;;;;;;;10.55;6.95;;;;;;;13.47;62.69;102213.47;7391442;19;20019;-54
2023/05/13 02:33:49;;;;;;;12.30;7.30;;;;;;;13.45;62.62;102212.72;7396446;19;20023;-54
2023/05/13 02:36:16;;;;;;;12.05;7.55;;;;;;;13.46;62.81;102222.41;7390901;19;20081;-54
2023/05/13 02:38:43;;;;;;;11.45;7.45;;;;;;;13.48;62.59;102217.88;7394906;19;20029;-54
2023/05/13 02:41:10;;;;;;;11.48;7.05;;;;;;;13.39;62.83;102214.84;7392332;19;20018;-54
2023/05/13 02:43:37;;;;;;;11.30;7.45;;;;;;;13.26;63.27;102213.88;7388081;19;20025;-54
2023/05/13 02:46:04;;;;;;;12.43;7.60;;;;;;;13.24;63.23;102210.47;7393053;19;20512;-55
2023/05/13 02:48:31;;;;;;;10.02;7.32;;;;;;;13.28;63.12;102206.66;7394849;19;20048;-56
2023/05/13 02:50:58;;;;;;;12.40;8.07;;;;;;;13.25;62.99;102206.84;7392542;19;20459;-54
2023/05/13 02:53:25;;;;;;;10.32;7.03;;;;;;;13.29;63.08;102205.72;7392746;19;20014;-55
2023/05/13 02:55:53;;;;;;;11.07;7.13;;;;;;;13.16;63.32;102202.94;7392288;19;20022;-55
2023/05/13 02:58:20;;;;;;;15.18;7.63;;;;;;;13.14;63.55;102201.28;7392515;19;20018;-53
2023/05/13 03:00:47;;;;;;;10.88;6.88;;;;;;;13.17;63.39;102201.13;7392865;19;20015;-55
2023/05/13 03:03:14;;;;;;;12.30;7.32;;;;;;;13.12;63.60;102206.69;7390890;19;20018;-54
2023/05/13 03:05:41;;;;;;;12.35;7.35;;;;;;;13.16;63.43;102204.69;7394159;19;20018;-55
2023/05/13 03:08:08;;;;;;;11.70;7.10;;;;;;;13.05;63.63;102209.81;7396184;19;20397;-55
2023/05/13 03:10:35;;;;;;;14.65;7.70;;;;;;;13.09;63.42;102206.06;7391433;19;20011;-56
2023/05/13 03:13:02;;;;;;;12.52;7.90;;;;;;;12.95;64.03;102203.38;7392186;19;20020;-55
2023/05/13 03:15:29;;;;;;;11.48;7.30;;;;;;;13.06;63.63;102200.91;7392515;19;20015;-55
2023/05/13 03:17:56;;;;;;;13.63;7.63;;;;;;;12.98;63.85;102206.69;7390163;19;20032;-55
2023/05/13 03:20:23;;;;;;;12.25;7.47;;;;;;;12.96;63.96;102205.91;7393809;19;20030;-55
2023/05/13 03:22:50;;;;;;;12.98;7.55;;;;;;;13.03;63.85;102203.75;7389445;19;20037;-55
2023/05/13 03:25:17;;;;;;;10.65;7.38;;;;;;;13.00;63.63;102201.28;7397149;19;20014;-55
2023/05/13 03:27:44;;;;;;;11.73;7.03;;;;;;;12.95;64.03;102203.38;7393890;19;20026;-55
2023/05/13 03:30:12;;;;;;;11.48;7.60;;;;;;;12.92;64.03;102207.91;7393562;19;20018;-55
2023/05/13 03:32:40;;;;;;;13.90;8.27;;;;;;;12.91;64.00;102203.53;7392817;19;20019;-55
2023/05/13 03:35:07;;;;;;;12.25;7.35;;;;;;;12.89;63.88;102204.56;7393321;19;20075;-55
2023/05/13 03:37:34;;;;;;;11.60;7.53;;;;;;;12.85;64.12;102198.59;7393517;19;20074;-55
2023/05/13 03:40:01;;;;;;;11.43;8.60;;;;;;;12.78;64.41;102201.69;7392546;19;20018;-55
2023/05/13 03:42:29;;;;;;;12.45;7.80;;;;;;;12.78;64.39;102201.69;7390661;19;20019;-54
2023/05/13 03:44:56;;;;;;;12.10;7.30;;;;;;;12.77;64.31;102200.84;7393054;19;20023;-55
2023/05/13 03:47:23;;;;;;;12.48;7.78;;;;;;;12.83;64.16;102202.31;7393016;19;20026;-55
2023/05/13 03:49:50;;;;;;;10.23;7.40;;;;;;;12.80;64.03;102203.34;7392317;19;20027;-55
2023/05/13 03:52:17;;;;;;;12.90;7.95;;;;;;;12.72;64.30;102210.91;7391564;19;20025;-54
2023/05/13 03:54:44;;;;;;;10.60;7.47;;;;;;;12.73;64.27;102212.63;7392795;19;20057;-55
2023/05/13 03:57:11;;;;;;;12.00;7.57;;;;;;;12.82;64.07;102212.09;7394945;19;20018;-55
2023/05/13 03:59:38;;;;;;;11.63;7.43;;;;;;;12.74;64.40;102214.31;7388316;19;20010;-55
2023/05/13 04:02:05;;;;;;;12.70;7.72;;;;;;;12.78;64.05;102212.34;7394834;19;20022;-55
2023/05/13 04:04:33;;;;;;;12.32;7.70;;;;;;;12.83;63.87;102219.09;7393639;19;20015;-55
2023/05/13 04:07:00;;;;;;;10.20;7.35;;;;;;;12.86;64.10;102215.41;7392103;19;20023;-55
2023/05/13 04:09:27;;;;;;;12.20;7.38;;;;;;;12.91;63.80;102221.31;7391544;19;20047;-55
2023/05/13 04:11:54;;;;;;;12.40;7.57;;;;;;;12.99;63.51;102221.69;7391686;19;20022;-55
2023/05/13 04:14:21;;;;;;;12.38;7.40;;;;;;;12.94;63.63;102223.78;7390444;19;20025;-56
2023/05/13 04:16:48;;;;;;;12.63;7.63;;;;;;;12.98;64.03;102221.81;7391352;19;20126;-55
2023/05/13 04:19:15;;;;;;;11.15;7.22;;;;;;;12.97;64.11;102228.91;7392101;19;20014;-55
2023/05/13 04:21:42;;;;;;;10.68;7.15;;;;;;;12.94;63.83;102234.41;7389911;19;20089;-56
2023/05/13 04:24:09;;;;;;;11.10;7.05;;;;;;;12.98;63.96;102238.59;7390146;19;20018;-55
2023/05/13 04:26:37;;;;;;;12.73;8.25;;;;;;;13.00;63.55;102235.84;7391511;19;20047;-56
2023/05/13 04:29:04;;;;;;;10.38;7.32;;;;;;;13.03;63.79;102235.66;7391715;19;20018;-55
2023/05/13 04:31:31;;;;;;;10.45;7.03;;;;;;;13.02;63.56;102234.81;7391351;19;20036;-55
2023/05/13 04:33:58;;;;;;;13.43;7.97;;;;;;;13.00;63.56;102239.34;7390724;19;20011;-56
2023/05/13 04:36:25;;;;;;;11.63;7.07;;;;;;;12.94;63.87;102234.41;7391044;19;20097;-56
2023/05/13 04:38:54;;;;;;;12.63;7.35;;;;;;;12.90;64.02;102248.84;7390273;19;20145;-55
2023/05/13 04:41:21;;;;;;;11.00;7.07;;;;;;;12.95;63.82;102241.44;7389565;19;20026;-56
2023/05/13 04:43:48;;;;;;;14.18;7.90;;;;;;;13.04;63.70;102242.69;7389546;19;20029;-55
2023/05/13 04:46:15;;;;;;;11.52;7.57;;;;;;;12.96;63.61;102244.97;7389406;19;20019;-56
2023/05/13 04:48:46;;;;;;;13.70;7.70;;;;;;;12.91;63.85;102246.09;7389131;19;20434;-56
2023/05/13 04:51:15;;;;;;;12.02;7.63;;;;;;;12.95;63.75;102248.56;7390843;19;20025;-56
2023/05/13 04:53:42;;;;;;;12.15;8.02;;;;;;;13.00;63.96;102241.16;7391417;19;20029;-55
2023/05/13 04:56:09;;;;;;;12.45;7.68;;;;;;;13.00;63.65;102246.47;7390946;19;20018;-55
2023/05/13 04:58:36;;;;;;;12.15;7.28;;;;;;;12.96;63.91;102252.94;7388253;19;20022;-55
2023/05/13 05:01:03;;;;;;;12.18;7.25;;;;;;;12.99;64.04;102256.25;7390935;19;20514;-56
2023/05/13 05:03:30;;;;;;;12.13;7.18;;;;;;;13.00;64.04;102251.81;7390114;19;20033;-55
2023/05/13 05:05:58;;;;;;;11.93;7.20;;;;;;;12.97;63.98;102263.47;7389768;19;20363;-55
2023/05/13 05:08:25;;;;;;;13.23;7.70;;;;;;;13.12;63.92;102261.69;7389448;19;20025;-55
2023/05/13 05:10:52;;;;;;;11.40;7.20;;;;;;;13.25;63.54;102268.03;7391036;19;20011;-56
2023/05/13 05:13:19;;;;;;;12.30;7.43;;;;;;;13.26;63.70;102275.06;7390140;19;20014;-55
2023/05/13 05:15:46;;;;;;;11.65;7.20;;;;;;;13.22;63.83;102273.50;7388731;19;20018;-55
2023/05/13 05:18:13;;;;;;;11.25;6.85;;;;;;;13.24;63.92;102268.09;7390735;19;20018;-55
2023/05/13 05:20:40;;;;;;;12.45;7.38;;;;;;;13.25;63.93;102269.84;7387789;19;20011;-55
2023/05/13 05:23:09;;;;;;;12.02;7.15;;;;;;;13.28;63.70;102273.19;7389956;19;20014;-55
2023/05/13 05:25:36;;;;;;;12.50;7.43;;;;;;;13.27;63.82;102268.78;7389850;19;20109;-55
2023/05/13 05:28:06;;;;;;;12.75;7.40;;;;;;;13.30;63.96;102270.41;7389494;19;20018;-55
2023/05/13 05:30:38;;;;;;;11.32;7.53;;;;;;;13.29;64.24;102274.88;7386477;19;20022;-56
2023/05/13 05:33:06;;;;;;;11.60;7.30;;;;;;;13.37;63.66;102275.25;7390724;19;20018;-56
2023/05/13 05:35:37;;;;;;;14.13;7.60;;;;;;;13.46;63.49;102273.84;7396856;19;20022;-55
2023/05/13 05:38:07;;;;;;;10.82;7.22;;;;;;;13.54;63.18;102274.22;7397697;19;20511;-55
2023/05/13 05:40:38;;;;;;;11.38;7.10;;;;;;;13.51;63.42;102271.78;7396165;19;20015;-56
2023/05/13 05:43:06;;;;;;;9.65;7.22;;;;;;;13.56;63.82;102272.34;7393010;19;20019;-55
2023/05/13 05:45:37;;;;;;;11.82;7.13;;;;;;;13.60;64.02;102273.84;7395571;19;20015;-55
2023/05/13 05:48:05;;;;;;;11.32;7.22;;;;;;;13.66;63.44;102269.97;7396650;19;20337;-55
2023/05/13 05:50:33;;;;;;;14.68;7.80;;;;;;;13.71;63.43;102275.84;7394593;19;20064;-56
2023/05/13 05:53:00;;;;;;;12.30;7.00;;;;;;;13.74;63.31;102273.00;7398101;19;20111;-55
2023/05/13 05:55:27;;;;;;;10.45;6.97;;;;;;;13.80;62.71;102277.06;7396759;19;20018;-55
2023/05/13 05:57:55;;;;;;;10.30;6.35;;;;;;;13.80;63.12;102274.41;7397214;19;20086;-55
2023/05/13 06:00:22;;;;;;;13.55;7.32;;;;;;;13.87;63.47;102278.41;7396511;19;20014;-56
2023/05/13 06:02:50;;;;;;;11.80;7.65;;;;;;;13.88;63.64;102277.44;7392442;19;20510;-55
2023/05/13 06:05:17;;;;;;;13.25;7.70;;;;;;;13.95;63.67;102278.75;7396290;19;20498;-55
2023/05/13 06:07:44;;;;;;;11.80;7.38;;;;;;;14.00;63.22;102281.97;7395685;19;20022;-55
2023/05/13 06:10:11;;;;;;;12.68;7.57;;;;;;;13.96;63.70;102287.59;7396652;19;20623;-56
2023/05/13 06:12:39;;;;;;;11.18;7.75;;;;;;;14.03;64.13;102283.59;7394219;19;20487;-55
2023/05/13 06:15:09;;;;;;;11.88;7.03;;;;;;;14.07;64.20;102285.13;7395083;19;20014;-56
2023/05/13 06:17:37;;;;;;;12.52;7.82;;;;;;;14.12;63.49;102281.22;7397121;19;20051;-56
2023/05/13 06:20:04;;;;;;;13.25;7.15;;;;;;;14.18;63.03;102273.78;7396105;19;20023;-55
2023/05/13 06:22:32;;;;;;;11.20;6.85;;;;;;;14.20;62.82;102278.06;7391970;19;20022;-56
2023/05/13 06:24:59;;;;;;;12.38;8.00;;;;;;;14.29;62.42;102274.78;7392819;19;20021;-55
2023/05/13 06:27:26;;;;;;;12.02;7.00;;;;;;;14.42;62.62;102273.97;7395881;19;20018;-55
2023/05/13 06:29:53;;;;;;;11.73;6.72;;;;;;;14.48;62.83;102268.25;7393760;19;20026;-55
2023/05/13 06:32:20;;;;;;;11.77;7.50;;;;;;;14.50;62.74;102274.38;7394149;19;20026;-56
2023/05/13 06:34:47;;;;;;;11.85;7.07;;;;;;;14.56;62.69;102266.81;7395472;19;20042;-55
2023/05/13 06:37:14;;;;;;;10.85;6.35;;;;;;;14.59;62.44;102274.63;7396080;19;20022;-55
2023/05/13 06:39:41;;;;;;;10.38;7.10;;;;;;;14.67;62.42;102276.78;7394914;19;20175;-56
2023/05/13 06:42:08;;;;;;;11.70;7.22;;;;;;;14.72;62.31;102274.66;7394127;19;20389;-55
2023/05/13 06:44:38;;;;;;;12.82;7.22;;;;;;;14.77;61.50;102285.03;7392610;19;20018;-55
2023/05/13 06:47:06;;;;;;;12.88;6.82;;;;;;;14.76;61.97;102281.50;7393626;19;20394;-55
2023/05/13 06:49:33;;;;;;;10.23;6.80;;;;;;;14.82;61.76;102282.91;7393821;19;20018;-56
2023/05/13 06:52:00;;;;;;;12.60;6.60;;;;;;;14.86;61.72;102279.06;7391582;19;20018;-56
2023/05/13 06:54:27;;;;;;;12.13;7.20;;;;;;;14.96;61.65;102282.00;7395088;19;20478;-55
2023/05/13 06:56:54;;;;;;;13.80;7.05;;;;;;;14.99;61.57;102279.94;7394860;19;20014;-55
2023/05/13 06:59:21;;;;;;;11.30;6.80;;;;;;;15.07;61.68;102279.41;7393553;19;20015;-55
2023/05/13 07:01:48;;;;;;;12.35;6.95;;;;;;;15.10;61.64;102276.53;7393919;19;20022;-55
2023/05/13 07:04:15;;;;;;;11.68;6.50;;;;;;;15.14;61.70;102270.03;7393649;19;20111;-55
2023/05/13 07:06:42;;;;;;;11.27;6.18;;;;;;;15.23;61.72;102273.91;7394638;19;20018;-55
2023/05/13 07:09:10;;;;;;;11.07;6.72;;;;;;;15.31;61.31;102276.91;7390017;19;20091;-55
2023/05/13 07:11:37;;;;;;;12.20;6.82;;;;;;;15.32;61.02;102273.25;7392381;19;20010;-56
2023/05/13 07:14:04;;;;;;;9.70;6.35;;;;;;;15.38;61.17;102275.50;7394050;19;20022;-56
2023/05/13 07:16:31;;;;;;;12.98;7.13;;;;;;;15.47;61.32;102280.19;7393071;19;20038;-57
2023/05/13 07:18:58;;;;;;;11.55;6.82;;;;;;;15.53;61.07;102273.56;7393726;19;20472;-57
2023/05/13 07:21:25;;;;;;;11.77;6.85;;;;;;;15.51;60.82;102272.84;7392860;19;20085;-56
2023/05/13 07:23:52;;;;;;;11.48;6.97;;;;;;;15.53;60.52;102276.22;7393840;19;20019;-56
2023/05/13 07:26:20;;;;;;;10.70;6.65;;;;;;;15.54;61.04;102268.13;7393312;19;20023;-56
2023/05/13 07:28:47;;;;;;;12.43;6.70;;;;;;;15.61;60.75;102268.56;7392953;19;20021;-57
2023/05/13 07:31:14;;;;;;;10.13;6.40;;;;;;;15.70;60.52;102270.59;7392847;19;20014;-56
2023/05/13 07:33:41;;;;;;;10.73;6.70;;;;;;;15.78;60.69;102278.06;7393731;19;20040;-57
2023/05/13 07:36:09;;;;;;;11.10;6.75;;;;;;;15.84;60.24;102267.81;7391377;19;20464;-57
2023/05/13 07:38:36;;;;;;;10.63;6.57;;;;;;;15.89;60.49;102272.81;7392814;19;20039;-57
2023/05/13 07:41:03;;;;;;;12.43;6.50;;;;;;;15.97;60.46;102275.78;7391857;19;20044;-56
2023/05/13 07:43:33;;;;;;;12.70;6.38;;;;;;;15.97;60.72;102274.94;7393159;19;20015;-56
2023/05/13 07:46:02;;;;;;;11.32;6.72;;;;;;;16.01;60.39;102284.44;7393062;19;20031;-57
2023/05/13 07:48:30;;;;;;;12.35;6.97;;;;;;;15.99;60.63;102278.34;7392869;19;20040;-55
2023/05/13 07:50:57;;;;;;;12.32;7.15;;;;;;;16.02;60.72;102276.28;7391990;19;20741;-56
2023/05/13 07:53:25;;;;;;;10.35;6.05;;;;;;;16.08;60.64;102277.69;7393754;19;20480;-56
2023/05/13 07:55:52;;;;;;;15.75;6.90;;;;;;;16.17;60.42;102278.81;7390233;19;20018;-56
2023/05/13 07:58:19;;;;;;;13.32;6.97;;;;;;;16.20;60.59;102274.09;7393048;19;20063;-57
2023/05/13 08:00:48;;;;;;;10.32;6.63;;;;;;;16.24;60.32;102272.91;7391848;19;20380;-56
2023/05/13 08:03:18;;;;;;;12.15;6.65;;;;;;;16.27;60.17;102270.03;7392741;19;20523;-57
2023/05/13 08:05:46;;;;;;;11.07;6.68;;;;;;;16.33;60.13;102274.94;7389741;19;20031;-56
2023/05/13 08:08:13;;;;;;;11.88;6.25;;;;;;;16.36;60.25;102270.31;7392176;19;20018;-54
2023/05/13 08:10:40;;;;;;;12.10;6.63;;;;;;;16.44;60.67;102270.59;7390291;19;20024;-55
2023/05/13 08:13:07;;;;;;;14.90;6.55;;;;;;;16.52;61.39;102269.06;7387223;19;20039;-55
2023/05/13 08:15:35;;;;;;;11.32;6.78;;;;;;;16.59;61.12;102266.78;7389230;19;20019;-53
2023/05/13 08:18:03;;;;;;;17.52;6.20;;;;;;;16.66;60.98;102265.34;7392301;19;20035;-55
2023/05/13 08:20:30;;;;;;;12.05;6.45;;;;;;;16.72;60.33;102272.06;7390076;19;20483;-55
2023/05/13 08:22:57;;;;;;;13.60;6.38;;;;;;;16.79;59.83;102266.16;7392052;19;20619;-54
2023/05/13 08:25:24;;;;;;;13.02;6.53;;;;;;;16.84;60.28;102273.00;7389892;19;20078;-53
2023/05/13 08:27:52;;;;;;;12.45;6.50;;;;;;;16.89;59.67;102270.81;7389940;19;20026;-56
2023/05/13 08:30:19;;;;;;;10.52;6.53;;;;;;;16.92;59.62;102273.25;7390298;19;20045;-56
2023/05/13 08:32:47;;;;;;;11.23;6.05;;;;;;;16.95;59.57;102275.72;7389477;19;20379;-55
2023/05/13 08:35:14;;;;;;;13.65;6.13;;;;;;;17.02;59.28;102274.28;7388720;19;20014;-56
2023/05/13 08:37:41;;;;;;;11.23;5.57;;;;;;;17.12;59.21;102269.91;7391336;19;20014;-59
2023/05/13 08:40:10;;;;;;;12.88;6.55;;;;;;;17.18;58.92;102274.78;7390368;19;20014;-54
2023/05/13 08:42:38;;;;;;;9.57;6.03;;;;;;;17.24;59.01;102265.41;7391024;19;20023;-57
2023/05/13 08:45:08;;;;;;;12.20;6.50;;;;;;;17.26;59.24;102267.00;7389747;19;20029;-54
2023/05/13 08:47:39;;;;;;;12.75;5.50;;;;;;;17.28;59.63;102262.41;7389544;19;20019;-55
2023/05/13 08:50:06;;;;;;;9.85;5.57;;;;;;;17.37;59.42;102263.50;7389972;19;20018;-55
2023/05/13 08:52:34;;;;;;;9.68;5.65;;;;;;;17.44;58.90;102258.53;7389557;19;20019;-54
2023/05/13 08:55:01;;;;;;;11.68;5.82;;;;;;;17.50;58.61;102264.22;7389923;19;20018;-54
2023/05/13 08:57:30;;;;;;;14.88;5.65;;;;;;;17.58;57.85;102260.09;7391288;19;20019;-54
2023/05/13 08:59:57;;;;;;;10.85;5.50;;;;;;;17.64;57.39;102254.25;7389928;19;20034;-54
2023/05/13 09:02:24;;;;;;;9.55;5.13;;;;;;;17.69;57.11;102252.91;7390972;19;20081;-54
2023/05/13 09:04:56;;;;;;;9.50;5.50;;;;;;;17.83;56.89;102256.34;7388107;19;20022;-54
2023/05/13 09:07:23;;;;;;;10.50;5.60;;;;;;;17.93;55.97;102252.81;7391479;19;20019;-53
2023/05/13 09:09:51;;;;;;;11.30;5.57;;;;;;;17.94;55.42;102250.97;7387953;19;20086;-53
2023/05/13 09:12:45;;;;;;;8.55;4.57;;;;;;;17.96;55.88;102255.22;7390579;19;20021;-54
2023/05/13 09:15:14;;;;;;;12.60;5.57;;;;;;;17.91;56.58;102252.06;7389904;19;20502;-52
2023/05/13 09:17:44;;;;;;;10.25;5.47;;;;;;;18.01;56.49;102252.19;7390353;19;20017;-54
2023/05/13 09:20:13;;;;;;;11.23;5.68;;;;;;;18.02;56.07;102257.41;7388627;19;20022;-55
2023/05/13 09:22:51;;;;;;;9.93;5.13;;;;;;;18.16;54.58;102248.25;7391182;19;20049;-55
2023/05/13 09:25:25;;;;;;;13.77;5.00;;;;;;;18.22;54.38;102252.25;7388113;19;20025;-54
2023/05/13 09:28:01;;;;;;;13.52;5.15;;;;;;;18.34;53.45;102251.22;7390723;19;20082;-55
2023/05/13 09:30:31;;;;;;;10.85;4.47;;;;;;;18.38;52.94;102250.00;7386954;19;20074;-56
2023/05/13 09:33:18;;;;;;;10.45;5.15;;;;;;;18.43;50.88;102249.59;7390514;19;20066;-54
2023/05/13 09:35:53;;;;;;;10.55;4.90;;;;;;;18.41;51.55;102249.75;7389368;19;20026;-54
2023/05/13 09:38:24;;;;;;;12.10;5.20;;;;;;;18.59;50.88;102250.06;7390210;19;20029;-55
2023/05/13 09:40:53;;;;;;;11.27;5.00;;;;;;;18.54;50.99;102240.66;7388828;19;20090;-55
2023/05/13 09:43:25;;;;;;;8.00;4.47;;;;;;;18.55;50.90;102240.56;7390305;19;20044;-55
2023/05/13 09:45:54;;;;;;;12.53;5.03;;;;;;;18.67;51.07;102236.84;7389699;19;20011;-55
2023/05/13 09:48:23;;;;;;;11.27;4.82;;;;;;;18.77;50.28;102244.97;7386905;19;20035;-56
2023/05/13 09:50:52;;;;;;;11.38;4.63;;;;;;;18.79;49.93;102236.81;7389194;19;20026;-57
2023/05/13 09:53:22;;;;;;;8.95;4.05;;;;;;;18.80;49.80;102228.63;7394761;19;20030;-54
2023/05/13 09:55:51;;;;;;;11.10;4.63;;;;;;;18.79;49.19;102231.44;7388534;19;20014;-56
2023/05/13 09:58:19;;;;;;;11.55;4.30;;;;;;;18.83;49.33;102220.31;7388676;19;20094;-56
2023/05/13 10:00:47;;;;;;;8.20;3.80;;;;;;;18.89;48.46;102227.00;7388374;19;20372;-56
2023/05/13 10:03:14;;;;;;;9.35;3.65;;;;;;;18.96;47.87;102220.09;7388459;19;20019;-56
2023/05/13 10:05:42;;;;;;;10.77;3.70;;;;;;;19.09;46.68;102223.44;7387637;19;20024;-57
2023/05/13 10:08:12;;;;;;;7.75;3.80;;;;;;;19.16;46.09;102219.25;7388850;19;20040;-56
2023/05/13 10:10:41;;;;;;;8.50;3.95;;;;;;;19.17;45.91;102223.63;7387334;19;20037;-55
2023/05/13 10:13:12;;;;;;;8.70;3.53;;;;;;;19.22;45.77;102221.38;7388678;19;20085;-56
2023/05/13 10:15:49;;;;;;;15.10;4.32;;;;;;;19.30;44.60;102219.88;7388672;19;20026;-53
2023/05/13 10:18:17;;;;;;;5.43;3.53;;;;;;;19.19;45.24;102218.13;7388889;19;20130;-55
2023/05/13 10:20:45;;;;;;;6.18;3.42;;;;;;;19.23;45.02;102214.16;7390487;19;20022;-55
2023/05/13 10:23:13;;;;;;;10.27;3.67;;;;;;;19.39;44.11;102219.94;7396173;19;20019;-56
2023/05/13 10:25:42;;;;;;;8.88;3.67;;;;;;;19.43;43.30;102212.44;7393748;19;20111;-55
2023/05/13 10:28:09;;;;;;;8.57;3.83;;;;;;;19.45;43.57;102210.47;7394431;19;20552;-55
2023/05/13 10:30:37;;;;;;;8.60;3.60;;;;;;;19.52;44.17;102210.78;7393566;19;20060;-54
2023/05/13 10:33:05;;;;;;;10.93;3.75;;;;;;;19.53;44.21;102207.09;7395625;19;20019;-54
2023/05/13 10:35:36;;;;;;;9.30;3.33;;;;;;;19.60;43.73;102202.88;7395540;19;20021;-55
2023/05/13 10:38:55;;;;;;;7.93;3.28;;;;;;;19.64;42.54;102198.97;7395338;19;20110;-55
2023/05/13 10:41:52;;;;;;;6.57;3.60;;;;;;;19.68;43.04;102195.00;7393148;19;20097;-56
2023/05/13 10:44:19;;;;;;;10.68;3.90;;;;;;;19.65;43.78;102192.59;7394307;19;20018;-55
2023/05/13 10:46:47;;;;;;;8.55;3.63;;;;;;;19.78;43.86;102195.06;7395382;19;20508;-56
2023/05/13 10:49:15;;;;;;;6.85;3.40;;;;;;;19.75;44.14;102188.09;7393620;19;20247;-54
2023/05/13 10:51:47;;;;;;;7.80;3.95;;;;;;;19.77;43.09;102182.59;7392906;19;20019;-55
2023/05/13 10:54:22;;;;;;;5.72;3.22;;;;;;;19.87;43.58;102188.84;7393168;19;20015;-55
2023/05/13 10:56:56;;;;;;;8.40;3.50;;;;;;;19.90;44.00;102189.41;7395109;19;20063;-54
2023/05/13 10:59:23;;;;;;;7.32;3.67;;;;;;;19.94;43.35;102188.13;7392159;19;20014;-55
2023/05/13 11:01:50;;;;;;;7.93;3.63;;;;;;;19.93;44.03;102186.44;7393175;19;20386;-55
2023/05/13 11:04:20;;;;;;;11.38;4.05;;;;;;;20.00;43.29;102193.97;7394067;19;20023;-56
2023/05/13 11:06:49;;;;;;;7.72;3.63;;;;;;;20.04;42.90;102185.47;7394100;19;20018;-54
2023/05/13 11:09:19;;;;;;;8.98;3.58;;;;;;;20.13;42.21;102190.00;7393702;19;20020;-55
2023/05/13 11:11:48;;;;;;;11.27;3.72;;;;;;;20.14;42.25;102189.00;7391807;19;20018;-55
2023/05/13 11:14:22;;;;;;;9.93;3.88;;;;;;;20.19;42.25;102184.06;7394188;19;20025;-55
2023/05/13 11:17:17;;;;;;;8.20;3.47;;;;;;;20.20;42.07;102184.91;7394043;19;20011;-54
2023/05/13 11:19:45;;;;;;;8.02;3.63;;;;;;;20.24;43.08;102180.09;7392707;19;20018;-54
2023/05/13 11:22:26;;;;;;;7.97;3.42;;;;;;;20.29;42.88;102178.69;7390815;19;20014;-55
2023/05/13 11:25:08;;;;;;;6.72;3.45;;;;;;;20.42;41.17;102170.34;7393223;19;20032;-53
2023/05/13 11:27:39;;;;;;;6.55;3.10;;;;;;;20.41;41.39;102174.00;7393542;19;20014;-53